createdAt,value
2023-03-06T00:00:24.326Z,14.00
2023-03-06T00:03:55.288Z,13.70
2023-03-06T00:06:59.324Z,12.40
2023-03-06T00:10:03.964Z,11.70
2023-03-06T00:13:13.691Z,12.20
2023-03-06T00:16:17.661Z,12.70
2023-03-06T00:19:23.187Z,11.60
2023-03-06T00:22:27.509Z,12.80
2023-03-06T00:25:31.620Z,11.50
2023-03-06T00:28:36.589Z,12.70
2023-03-06T00:31:40.639Z,11.60
2023-03-06T00:34:49.019Z,11.80
2023-03-06T00:37:53.110Z,10.80
2023-03-06T00:40:57.091Z,11.80
2023-03-06T00:44:01.043Z,14.40
2023-03-06T00:47:05.264Z,12.40
2023-03-06T00:50:10.519Z,14.80
2023-03-06T00:53:14.622Z,13.10
2023-03-06T00:56:20.051Z,14.50
2023-03-06T00:59:25.093Z,13.60
2023-03-06T01:02:29.324Z,14.80
2023-03-06T01:05:36.215Z,15.10
2023-03-06T01:08:40.225Z,14.90
2023-03-06T01:11:44.225Z,13.10
2023-03-06T01:14:48.562Z,13.20
2023-03-06T01:17:56.528Z,13.80
2023-03-06T01:21:00.486Z,14.80
2023-03-06T01:24:04.672Z,16.50
2023-03-06T01:27:08.734Z,16.90
2023-03-06T01:30:13.454Z,15.70
2023-03-06T01:33:17.468Z,14.80
2023-03-06T01:36:21.468Z,14.50
2023-03-06T01:39:25.502Z,15.00
2023-03-06T01:42:31.363Z,14.70
2023-03-06T01:45:36.139Z,16.30
2023-03-06T01:48:40.429Z,14.40
2023-03-06T01:52:00.111Z,13.70
2023-03-06T01:55:10.001Z,14.70
2023-03-06T01:58:18.378Z,11.40
2023-03-06T02:01:22.682Z,14.00
2023-03-06T02:04:26.650Z,11.80
2023-03-06T02:07:31.502Z,12.40
2023-03-06T02:10:36.371Z,13.40
2023-03-06T02:13:41.767Z,18.00
2023-03-06T02:16:45.910Z,16.20
2023-03-06T02:20:10.309Z,15.70
2023-03-06T02:23:19.984Z,14.70
2023-03-06T02:26:26.851Z,16.50
2023-03-06T02:29:32.364Z,15.60
2023-03-06T02:32:38.518Z,13.10
2023-03-06T02:36:03.639Z,13.90
2023-03-06T02:39:08.013Z,12.40
2023-03-06T02:42:18.601Z,13.40
2023-03-06T02:45:45.305Z,13.60
2023-03-06T02:48:49.462Z,9.20
2023-03-06T02:51:53.575Z,12.30
2023-03-06T02:54:57.577Z,13.20
2023-03-06T02:58:02.584Z,12.10
2023-03-06T03:01:07.497Z,11.60
2023-03-06T03:04:12.030Z,15.50
2023-03-06T03:07:16.288Z,15.10
2023-03-06T03:10:21.207Z,14.10
2023-03-06T03:13:25.361Z,14.60
2023-03-06T03:16:29.719Z,11.40
2023-03-06T03:19:35.450Z,13.80
2023-03-06T03:22:39.877Z,12.80
2023-03-06T03:25:43.897Z,13.90
2023-03-06T03:28:48.149Z,13.00
2023-03-06T03:31:53.741Z,11.60
2023-03-06T03:35:01.664Z,9.50
2023-03-06T03:38:05.899Z,10.60
2023-03-06T03:41:10.223Z,7.90
2023-03-06T03:44:15.137Z,11.40
2023-03-06T03:47:19.658Z,9.30
2023-03-06T03:50:23.841Z,9.90
2023-03-06T03:53:27.900Z,8.80
2023-03-06T03:56:32.930Z,13.30
2023-03-06T03:59:46.371Z,14.50
2023-03-06T04:03:16.705Z,12.00
2023-03-06T04:06:22.464Z,12.40
2023-03-06T04:09:27.057Z,12.40
2023-03-06T04:12:31.323Z,13.10
2023-03-06T04:15:35.761Z,13.50
2023-03-06T04:18:40.187Z,10.90
2023-03-06T04:21:45.018Z,11.80
2023-03-06T04:24:50.003Z,11.60
2023-03-06T04:27:54.464Z,11.70
2023-03-06T04:30:58.808Z,10.40
2023-03-06T04:34:03.215Z,11.30
2023-03-06T04:37:14.125Z,9.40
2023-03-06T04:40:29.913Z,10.50
2023-03-06T04:43:34.129Z,11.20
2023-03-06T04:46:38.112Z,11.30
2023-03-06T04:49:42.164Z,17.00
2023-03-06T04:52:46.834Z,29.60
2023-03-06T04:55:50.741Z,30.40
2023-03-06T04:58:54.719Z,22.50
2023-03-06T05:01:58.710Z,18.10
2023-03-06T05:05:04.260Z,16.90
2023-03-06T05:08:11.049Z,16.80
2023-03-06T05:11:15.079Z,14.60
2023-03-06T05:14:19.238Z,13.90
2023-03-06T05:17:23.216Z,13.10
2023-03-06T05:20:28.875Z,13.30
2023-03-06T05:23:34.833Z,12.50
2023-03-06T05:26:38.764Z,12.00
2023-03-06T05:29:42.747Z,10.80
2023-03-06T05:32:46.796Z,9.00
2023-03-06T05:35:51.137Z,11.70
2023-03-06T05:38:55.271Z,9.20
2023-03-06T05:41:59.334Z,13.00
2023-03-06T05:45:04.577Z,17.40
2023-03-06T05:48:09.402Z,18.70
2023-03-06T05:51:13.356Z,15.30
2023-03-06T05:54:17.542Z,14.00
2023-03-06T05:57:24.128Z,13.00
2023-03-06T06:00:28.433Z,16.30
2023-03-06T06:03:32.421Z,12.00
2023-03-06T06:06:36.380Z,16.10
2023-03-06T06:09:40.688Z,13.40
2023-03-06T06:12:44.725Z,15.90
2023-03-06T06:15:48.773Z,13.30
2023-03-06T06:18:52.841Z,13.20
2023-03-06T06:21:57.476Z,14.00
2023-03-06T06:25:01.591Z,15.70
2023-03-06T06:28:06.132Z,13.40
2023-03-06T06:31:12.700Z,12.30
2023-03-06T06:34:17.119Z,24.00
2023-03-06T06:37:21.099Z,23.70
2023-03-06T06:40:27.722Z,16.60
2023-03-06T06:43:31.830Z,15.70
2023-03-06T06:47:20.786Z,16.80
2023-03-06T06:50:01.158Z,17.50
2023-03-06T06:53:05.682Z,14.60
2023-03-06T06:56:09.819Z,13.60
2023-03-06T06:59:17.199Z,15.00
2023-03-06T07:02:21.716Z,12.90
2023-03-06T07:05:25.764Z,11.40
2023-03-06T07:08:30.558Z,9.80
2023-03-06T07:14:39.643Z,9.90
2023-03-06T07:17:43.675Z,12.50
2023-03-06T07:20:47.859Z,11.50
2023-03-06T07:23:51.875Z,17.40
2023-03-06T07:26:55.821Z,17.20
2023-03-06T07:30:00.193Z,14.50
2023-03-06T07:33:04.358Z,13.70
2023-03-06T07:36:12.720Z,11.60
2023-03-06T07:39:17.108Z,13.90
2023-03-06T07:42:21.068Z,13.50
2023-03-06T07:45:31.066Z,14.50
2023-03-06T07:48:36.806Z,12.30
2023-03-06T07:51:40.839Z,11.70
2023-03-06T07:54:44.958Z,12.90
2023-03-06T07:57:50.818Z,12.90
2023-03-06T08:00:54.937Z,11.10
2023-03-06T08:04:01.183Z,11.50
2023-03-06T08:07:05.319Z,12.60
2023-03-06T08:10:10.260Z,14.90
2023-03-06T08:13:14.268Z,13.10
2023-03-06T08:16:21.196Z,11.60
2023-03-06T08:19:25.267Z,10.50
2023-03-06T08:22:29.282Z,10.10
2023-03-06T08:25:33.298Z,11.80
2023-03-06T08:28:37.521Z,11.50
2023-03-06T08:31:44.467Z,9.60
2023-03-06T08:34:48.526Z,10.80
2023-03-06T08:37:52.532Z,9.90
2023-03-06T08:40:56.554Z,7.30
2023-03-06T08:44:00.942Z,9.80
2023-03-06T08:47:05.055Z,8.80
2023-03-06T08:50:10.204Z,10.30
2023-03-06T08:53:14.421Z,9.40
2023-03-06T08:56:23.344Z,7.60
2023-03-06T08:59:27.714Z,10.10
2023-03-06T09:02:32.586Z,10.80
2023-03-06T09:05:37.148Z,9.60
2023-03-06T09:08:43.340Z,8.60
2023-03-06T09:11:47.363Z,8.70
2023-03-06T09:14:51.537Z,9.70
2023-03-06T09:17:55.577Z,9.30
2023-03-06T09:20:59.614Z,9.20
2023-03-06T09:24:03.715Z,9.70
2023-03-06T09:27:07.665Z,9.40
2023-03-06T09:30:12.555Z,10.50
2023-03-06T09:33:16.840Z,8.40
2023-03-06T09:36:23.069Z,11.00
2023-03-06T09:39:27.528Z,10.00
2023-03-06T09:45:37.352Z,9.00
2023-03-06T09:52:15.368Z,10.60
2023-03-06T09:55:27.343Z,9.90
2023-03-06T09:58:37.871Z,10.90
2023-03-06T10:01:46.293Z,7.90
2023-03-06T10:04:54.732Z,12.00
2023-03-06T10:08:06.550Z,9.10
2023-03-06T10:11:13.457Z,11.50
2023-03-06T10:14:20.584Z,10.80
2023-03-06T10:17:26.332Z,9.80
2023-03-06T10:20:41.096Z,11.40
2023-03-06T10:23:54.903Z,8.30
2023-03-06T10:27:01.906Z,9.50
2023-03-06T10:30:33.963Z,8.70
2023-03-06T10:34:15.154Z,8.30
2023-03-06T10:37:21.787Z,7.90
2023-03-06T10:40:36.140Z,9.20
2023-03-06T10:43:44.336Z,7.10
2023-03-06T10:46:51.653Z,8.10
2023-03-06T10:50:01.539Z,10.30
2023-03-06T10:53:07.662Z,9.00
2023-03-06T10:56:11.684Z,7.60
2023-03-06T10:59:25.546Z,9.50
2023-03-06T11:02:38.398Z,6.50
2023-03-06T11:05:55.468Z,7.20
2023-03-06T11:09:24.271Z,15.40
2023-03-06T11:12:39.861Z,5.50
2023-03-06T11:16:14.989Z,5.70
2023-03-06T11:19:28.122Z,7.50
2023-03-06T11:22:32.633Z,8.00
2023-03-06T11:25:53.400Z,7.80
2023-03-06T11:29:17.410Z,6.70
2023-03-06T11:32:36.805Z,7.60
2023-03-06T11:35:56.252Z,6.60
2023-03-06T11:39:04.646Z,9.00
2023-03-06T11:42:25.726Z,6.60
2023-03-06T11:45:46.470Z,6.70
2023-03-06T11:49:17.312Z,6.40
2023-03-06T11:52:32.570Z,7.20
2023-03-06T11:55:42.839Z,6.40
2023-03-06T11:59:33.113Z,5.30
2023-03-06T12:03:06.055Z,6.10
2023-03-06T12:06:48.862Z,6.50
2023-03-06T12:10:23.841Z,5.30
2023-03-06T12:13:50.147Z,10.20
2023-03-06T12:17:19.439Z,9.40
2023-03-06T12:20:55.076Z,10.30
2023-03-06T12:24:33.334Z,14.30
2023-03-06T12:27:55.649Z,6.60
2023-03-06T12:31:24.605Z,8.60
2023-03-06T12:34:58.858Z,10.40
2023-03-06T12:38:09.007Z,7.00
2023-03-06T12:41:24.839Z,9.20
2023-03-06T12:44:47.611Z,6.90
2023-03-06T12:47:56.607Z,7.20
2023-03-06T12:51:01.605Z,10.70
2023-03-06T12:54:06.882Z,10.00
2023-03-06T12:57:15.266Z,7.80
2023-03-06T13:00:34.706Z,9.80
2023-03-06T13:03:47.431Z,10.60
2023-03-06T13:07:10.710Z,10.00
2023-03-06T13:10:29.355Z,9.00
2023-03-06T13:13:45.870Z,10.10
2023-03-06T13:20:16.540Z,6.20
2023-03-06T13:23:29.638Z,8.90
2023-03-06T13:26:33.618Z,9.00
2023-03-06T13:29:37.600Z,12.00
2023-03-06T13:32:41.682Z,10.20
2023-03-06T13:35:55.597Z,15.60
2023-03-06T13:39:03.947Z,19.40
2023-03-06T13:42:28.079Z,15.60
2023-03-06T13:45:44.866Z,11.50
2023-03-06T13:49:02.845Z,13.70
2023-03-06T13:52:29.690Z,13.40
2023-03-06T13:55:58.461Z,14.30
2023-03-06T13:59:17.730Z,13.30
2023-03-06T14:02:39.882Z,15.60
2023-03-06T14:05:47.881Z,12.00
2023-03-06T14:08:52.262Z,13.90
2023-03-06T14:12:15.572Z,9.80
2023-03-06T14:15:31.927Z,15.40
2023-03-06T14:18:44.598Z,14.80
2023-03-06T14:21:54.814Z,13.70
2023-03-06T14:25:07.375Z,13.60
2023-03-06T14:28:26.445Z,13.60
2023-03-06T14:31:33.443Z,13.90
2023-03-06T14:34:41.255Z,18.50
2023-03-06T14:37:55.694Z,15.70
2023-03-06T14:41:00.012Z,15.30
2023-03-06T14:44:22.850Z,16.00
2023-03-06T14:47:37.219Z,17.80
2023-03-06T14:50:42.286Z,16.10
2023-03-06T14:53:49.082Z,15.60
2023-03-06T14:57:00.829Z,14.60
2023-03-06T15:00:07.003Z,15.00
2023-03-06T15:03:43.781Z,12.30
2023-03-06T15:06:48.040Z,27.80
2023-03-06T15:09:54.385Z,23.90
2023-03-06T15:13:21.112Z,23.20
2023-03-06T15:16:30.090Z,20.00
2023-03-06T15:19:40.647Z,20.30
2023-03-06T15:22:50.869Z,21.40
2023-03-06T15:25:58.427Z,21.30
2023-03-06T15:29:09.637Z,16.00
2023-03-06T15:32:35.725Z,18.20
2023-03-06T15:35:40.095Z,19.40
2023-03-06T15:38:46.426Z,16.10
2023-03-06T15:42:03.587Z,14.40
2023-03-06T15:45:19.527Z,15.10
2023-03-06T15:48:23.566Z,14.90
2023-03-06T15:51:27.483Z,14.50
2023-03-06T15:54:32.975Z,14.50
2023-03-06T15:57:38.245Z,13.80
2023-03-06T16:03:46.583Z,14.50
2023-03-06T16:06:50.623Z,17.60
2023-03-06T16:09:54.633Z,16.30
2023-03-06T16:13:04.550Z,15.80
2023-03-06T16:16:22.342Z,16.20
2023-03-06T16:19:27.821Z,17.40
2023-03-06T16:22:32.078Z,16.60
2023-03-06T16:25:42.122Z,16.20
2023-03-06T16:28:46.559Z,15.50
2023-03-06T16:31:51.555Z,15.40
2023-03-06T16:34:55.526Z,17.60
2023-03-06T16:38:00.185Z,15.50
2023-03-06T16:41:04.278Z,16.20
2023-03-06T16:44:10.152Z,15.60
2023-03-06T16:47:14.252Z,15.30
2023-03-06T16:50:28.924Z,16.80
2023-03-06T16:53:32.939Z,17.60
2023-03-06T16:56:36.953Z,18.00
2023-03-06T16:59:41.303Z,15.70
2023-03-06T17:02:48.707Z,18.40
2023-03-06T17:05:53.101Z,16.70
2023-03-06T17:08:58.251Z,17.90
2023-03-06T17:12:02.251Z,17.80
2023-03-06T17:15:07.157Z,18.90
2023-03-06T17:18:11.111Z,20.20
2023-03-06T17:21:18.191Z,20.40
2023-03-06T17:24:22.317Z,18.00
2023-03-06T17:27:26.319Z,17.00
2023-03-06T17:30:30.242Z,17.20
2023-03-06T17:33:34.258Z,24.10
2023-03-06T17:36:38.272Z,19.90
2023-03-06T17:39:42.287Z,19.60
2023-03-06T17:42:46.411Z,18.50
2023-03-06T17:45:50.348Z,17.20
2023-03-06T17:48:55.504Z,15.10
2023-03-06T17:52:01.127Z,12.40
2023-03-06T17:55:06.513Z,12.10
2023-03-06T17:58:12.350Z,10.80
2023-03-06T18:01:19.837Z,13.00
2023-03-06T18:04:24.448Z,14.10
2023-03-06T18:07:28.463Z,10.80
2023-03-06T18:10:32.484Z,12.10
2023-03-06T18:13:39.363Z,14.00
2023-03-06T18:16:43.592Z,13.50
2023-03-06T18:19:47.903Z,14.50
2023-03-06T18:22:52.031Z,16.60
2023-03-06T18:26:11.633Z,14.50
2023-03-06T18:29:15.667Z,19.10
2023-03-06T18:32:19.774Z,14.20
2023-03-06T18:35:23.922Z,15.00
2023-03-06T18:38:27.869Z,15.50
2023-03-06T18:41:32.159Z,15.90
2023-03-06T18:44:36.215Z,14.00
2023-03-06T18:47:41.030Z,14.00
2023-03-06T18:50:44.944Z,15.00
2023-03-06T18:53:49.072Z,13.90
2023-03-06T18:56:52.982Z,15.10
2023-03-06T18:59:57.004Z,18.60
2023-03-06T19:03:01.019Z,15.80
2023-03-06T19:06:08.034Z,18.20
2023-03-06T19:09:12.041Z,16.10
2023-03-06T19:12:16.975Z,15.40
2023-03-06T19:15:20.985Z,14.70
2023-03-06T19:18:26.689Z,15.30
2023-03-06T19:21:30.712Z,14.90
2023-03-06T19:24:34.817Z,16.40
2023-03-06T19:27:39.496Z,19.30
2023-03-06T19:33:49.369Z,22.90
2023-03-06T19:36:53.300Z,22.40
2023-03-06T19:40:01.422Z,16.60
2023-03-06T19:43:05.521Z,17.40
2023-03-06T19:46:13.979Z,16.50
2023-03-06T19:49:18.245Z,16.80
2023-03-06T19:52:24.632Z,17.70
2023-03-06T19:55:28.860Z,18.20
2023-03-06T19:58:33.184Z,21.90
2023-03-06T20:01:38.682Z,20.30
2023-03-06T20:04:42.686Z,22.20
2023-03-06T20:07:46.767Z,28.50
2023-03-06T20:10:50.661Z,25.40
2023-03-06T20:13:54.617Z,25.40
2023-03-06T20:16:58.540Z,23.90
2023-03-06T20:20:03.276Z,23.10
2023-03-06T20:23:07.220Z,20.30
2023-03-06T20:26:14.433Z,19.50
2023-03-06T20:29:18.432Z,18.70
2023-03-06T20:32:22.413Z,19.20
2023-03-06T20:35:26.457Z,19.50
2023-03-06T20:38:30.697Z,17.80
2023-03-06T20:41:35.936Z,20.10
2023-03-06T20:44:39.954Z,20.00
2023-03-06T20:47:47.135Z,15.40
2023-03-06T20:51:06.011Z,13.70
2023-03-06T20:54:13.095Z,15.00
2023-03-06T20:57:17.209Z,14.80
2023-03-06T21:00:21.417Z,14.20
2023-03-06T21:03:25.773Z,13.90
2023-03-06T21:06:30.476Z,10.60
2023-03-06T21:09:37.679Z,9.00
2023-03-06T21:12:41.696Z,9.40
2023-03-06T21:15:47.589Z,8.70
2023-03-06T21:18:54.547Z,9.70
2023-03-06T21:21:58.715Z,8.00
2023-03-06T21:25:02.781Z,7.40
2023-03-06T21:28:06.680Z,9.30
2023-03-06T21:31:12.535Z,8.50
2023-03-06T21:34:16.466Z,8.60
2023-03-06T21:37:20.387Z,8.70
2023-03-06T21:40:24.297Z,8.60
2023-03-06T21:43:28.320Z,8.90
2023-03-06T21:46:33.456Z,8.70
2023-03-06T21:49:37.470Z,7.80
2023-03-06T21:52:41.441Z,7.60
2023-03-06T21:55:45.402Z,7.80
2023-03-06T21:58:49.402Z,8.50
2023-03-06T22:01:53.338Z,10.50
2023-03-06T22:04:57.343Z,9.20
2023-03-06T22:08:01.330Z,9.70
2023-03-06T22:11:07.733Z,9.10
2023-03-06T22:14:11.744Z,10.30
2023-03-06T22:17:15.666Z,9.90
2023-03-06T22:20:19.549Z,10.30
2023-03-06T22:23:23.856Z,10.30
2023-03-06T22:26:29.270Z,9.10
2023-03-06T22:29:33.558Z,9.10
2023-03-06T22:32:37.607Z,11.10
2023-03-06T22:35:41.742Z,8.90
2023-03-06T22:38:47.220Z,10.80
2023-03-06T22:41:51.565Z,10.00
2023-03-06T22:44:55.578Z,9.90
2023-03-06T22:48:10.137Z,9.90
2023-03-06T22:51:20.481Z,10.60
2023-03-06T22:54:24.517Z,10.00
2023-03-06T22:57:29.973Z,11.10
2023-03-06T23:00:33.925Z,11.70
2023-03-06T23:03:39.449Z,12.20
2023-03-06T23:06:43.591Z,11.50
2023-03-06T23:09:47.670Z,11.70
2023-03-06T23:13:10.431Z,13.00
2023-03-06T23:19:56.467Z,12.50
2023-03-06T23:23:19.196Z,12.10
2023-03-06T23:26:29.105Z,14.70
2023-03-06T23:29:33.080Z,13.20
2023-03-06T23:32:37.171Z,13.40
2023-03-06T23:35:41.466Z,13.70
2023-03-06T23:38:46.679Z,12.30
2023-03-06T23:41:50.640Z,14.00
2023-03-06T23:44:55.007Z,15.40
2023-03-06T23:47:59.224Z,14.10
2023-03-06T23:51:15.548Z,14.70
2023-03-06T23:54:19.485Z,12.60
2023-03-06T23:57:23.449Z,14.10
